createdAt,value
2023-04-30T00:01:00.146Z,54.20
2023-04-30T00:03:01.903Z,54.10
2023-04-30T00:05:03.693Z,54.20
2023-04-30T00:07:05.309Z,54.20
2023-04-30T00:09:06.981Z,54.20
2023-04-30T00:11:08.586Z,54.10
2023-04-30T00:13:10.346Z,54.10
2023-04-30T00:15:12.258Z,54.10
2023-04-30T00:17:13.795Z,54.10
2023-04-30T00:19:15.460Z,54.10
2023-04-30T00:21:17.092Z,54.10
2023-04-30T00:23:18.701Z,54.20
2023-04-30T00:25:21.256Z,54.20
2023-04-30T00:27:22.840Z,54.10
2023-04-30T00:29:24.390Z,54.10
2023-04-30T00:31:26.110Z,54.00
2023-04-30T00:33:27.685Z,54.10
2023-04-30T00:35:29.256Z,54.10
2023-04-30T00:37:31.175Z,54.00
2023-04-30T00:39:32.769Z,54.10
2023-04-30T00:41:37.249Z,54.00
2023-04-30T00:43:38.846Z,54.10
2023-04-30T00:45:40.652Z,54.10
2023-04-30T00:47:42.248Z,54.00
2023-04-30T00:49:43.829Z,54.00
2023-04-30T00:51:45.487Z,54.60
2023-04-30T00:53:47.014Z,54.00
2023-04-30T00:55:48.611Z,54.00
2023-04-30T00:57:50.413Z,54.00
2023-04-30T00:59:52.346Z,53.90
2023-04-30T01:01:54.091Z,54.50
2023-04-30T01:03:55.963Z,53.80
2023-04-30T01:05:57.517Z,54.00
2023-04-30T01:07:59.165Z,53.90
2023-04-30T01:10:00.856Z,53.90
2023-04-30T01:12:26.286Z,54.10
2023-04-30T01:14:30.036Z,53.90
2023-04-30T01:16:35.866Z,53.80
2023-04-30T01:18:41.920Z,54.00
2023-04-30T01:20:58.388Z,54.00
2023-04-30T01:23:35.573Z,53.80
2023-04-30T01:25:40.194Z,53.90
2023-04-30T01:28:00.488Z,53.80
2023-04-30T01:30:03.632Z,53.80
2023-04-30T01:32:05.204Z,53.80
2023-04-30T01:34:06.728Z,53.90
2023-04-30T01:36:27.134Z,53.80
2023-04-30T01:38:45.116Z,53.90
2023-04-30T01:40:49.671Z,53.90
2023-04-30T01:42:54.218Z,53.90
2023-04-30T01:45:10.991Z,53.90
2023-04-30T01:47:45.083Z,53.90
2023-04-30T01:49:51.611Z,54.00
2023-04-30T01:51:56.311Z,54.00
2023-04-30T01:53:59.129Z,54.00
2023-04-30T01:56:05.987Z,53.80
2023-04-30T01:58:10.205Z,53.80
2023-04-30T02:00:12.052Z,54.00
2023-04-30T02:02:13.620Z,53.90
2023-04-30T02:04:15.203Z,54.00
2023-04-30T02:06:16.768Z,54.00
2023-04-30T02:08:18.405Z,53.90
2023-04-30T02:10:21.774Z,54.00
2023-04-30T02:12:23.377Z,53.90
2023-04-30T02:14:25.291Z,53.80
2023-04-30T02:16:26.901Z,53.80
2023-04-30T02:18:28.503Z,53.70
2023-04-30T02:20:30.094Z,53.80
2023-04-30T02:22:31.794Z,53.90
2023-04-30T02:24:33.357Z,53.80
2023-04-30T02:26:34.883Z,53.70
2023-04-30T02:28:36.428Z,53.80
2023-04-30T02:30:38.065Z,53.70
2023-04-30T02:32:39.666Z,53.80
2023-04-30T02:34:41.437Z,53.70
2023-04-30T02:36:42.958Z,53.60
2023-04-30T02:38:44.503Z,53.70
2023-04-30T02:40:46.056Z,53.70
2023-04-30T02:42:48.251Z,53.70
2023-04-30T02:44:49.831Z,53.70
2023-04-30T02:46:51.404Z,53.70
2023-04-30T02:48:53.033Z,53.70
2023-04-30T02:50:54.633Z,53.60
2023-04-30T02:52:56.354Z,53.70
2023-04-30T02:54:57.892Z,53.60
2023-04-30T02:56:59.505Z,53.60
2023-04-30T02:59:01.178Z,53.60
2023-04-30T03:01:02.784Z,53.60
2023-04-30T03:03:04.493Z,53.60
2023-04-30T03:05:06.419Z,53.60
2023-04-30T03:07:08.024Z,53.60
2023-04-30T03:09:09.561Z,53.50
2023-04-30T03:11:11.089Z,53.60
2023-04-30T03:13:12.666Z,53.70
2023-04-30T03:15:14.225Z,53.70
2023-04-30T03:17:16.572Z,53.60
2023-04-30T03:19:22.034Z,53.50
2023-04-30T03:21:23.754Z,53.40
2023-04-30T03:23:27.828Z,53.50
2023-04-30T03:25:29.356Z,53.40
2023-04-30T03:27:30.854Z,53.40
2023-04-30T03:29:32.358Z,53.40
2023-04-30T03:31:34.154Z,53.40
2023-04-30T03:33:35.792Z,53.30
2023-04-30T03:35:37.393Z,53.30
2023-04-30T03:37:38.957Z,53.20
2023-04-30T03:39:40.528Z,53.30
2023-04-30T03:41:42.093Z,53.40
2023-04-30T03:43:43.621Z,53.40
2023-04-30T03:45:45.665Z,53.30
2023-04-30T03:47:47.382Z,53.30
2023-04-30T03:49:55.178Z,53.20
2023-04-30T03:51:57.167Z,53.10
2023-04-30T03:53:58.768Z,53.20
2023-04-30T03:56:00.303Z,53.00
2023-04-30T03:58:01.987Z,53.00
2023-04-30T04:00:07.672Z,53.00
2023-04-30T04:02:09.363Z,53.00
2023-04-30T04:04:11.195Z,53.00
2023-04-30T04:06:12.771Z,52.90
2023-04-30T04:08:14.516Z,52.80
2023-04-30T04:10:16.246Z,52.90
2023-04-30T04:12:17.797Z,53.00
2023-04-30T04:14:19.426Z,52.90
2023-04-30T04:16:21.077Z,52.80
2023-04-30T04:18:22.648Z,52.80
2023-04-30T04:20:24.251Z,52.80
2023-04-30T04:22:26.089Z,52.70
2023-04-30T04:24:27.762Z,52.90
2023-04-30T04:26:29.881Z,52.80
2023-04-30T04:28:31.924Z,52.80
2023-04-30T04:30:33.955Z,52.70
2023-04-30T04:32:46.528Z,52.70
2023-04-30T04:34:49.435Z,53.30
2023-04-30T04:36:51.004Z,52.50
2023-04-30T04:38:52.744Z,52.50
2023-04-30T04:40:54.796Z,52.60
2023-04-30T04:42:56.304Z,52.80
2023-04-30T04:44:57.852Z,52.80
2023-04-30T04:46:59.435Z,52.60
2023-04-30T04:49:01.056Z,52.50
2023-04-30T04:51:02.630Z,52.80
2023-04-30T04:53:04.242Z,53.00
2023-04-30T04:55:05.972Z,53.40
2023-04-30T04:57:07.703Z,53.60
2023-04-30T04:59:09.269Z,53.40
2023-04-30T05:01:11.293Z,53.30
2023-04-30T05:03:14.334Z,53.30
2023-04-30T05:05:16.065Z,53.10
2023-04-30T05:07:17.959Z,53.10
2023-04-30T05:09:19.523Z,53.30
2023-04-30T05:11:22.082Z,53.20
2023-04-30T05:13:23.700Z,53.10
2023-04-30T05:15:25.852Z,53.00
2023-04-30T05:17:27.635Z,53.00
2023-04-30T05:19:29.263Z,53.20
2023-04-30T05:21:32.073Z,53.00
2023-04-30T05:23:33.628Z,53.00
2023-04-30T05:25:38.227Z,53.00
2023-04-30T05:27:41.049Z,53.10
2023-04-30T05:29:42.684Z,52.90
2023-04-30T05:31:44.247Z,53.00
2023-04-30T05:33:45.847Z,53.00
2023-04-30T05:35:47.447Z,53.10
2023-04-30T05:37:49.106Z,53.10
2023-04-30T05:39:50.652Z,53.00
2023-04-30T05:41:53.449Z,52.90
2023-04-30T05:43:55.385Z,52.80
2023-04-30T05:45:56.991Z,52.80
2023-04-30T05:47:58.612Z,52.60
2023-04-30T05:50:00.344Z,52.60
2023-04-30T05:52:03.469Z,52.60
2023-04-30T05:54:05.013Z,52.60
2023-04-30T05:56:06.665Z,52.60
2023-04-30T05:58:08.240Z,52.60
2023-04-30T06:00:10.150Z,52.30
2023-04-30T06:02:11.766Z,52.40
2023-04-30T06:04:13.415Z,52.40
2023-04-30T06:06:15.243Z,52.60
2023-04-30T06:08:16.946Z,52.60
2023-04-30T06:10:18.526Z,52.40
2023-04-30T06:12:20.331Z,50.90
2023-04-30T06:14:24.952Z,48.70
2023-04-30T06:16:26.619Z,49.70
2023-04-30T06:18:28.154Z,48.60
2023-04-30T06:20:29.924Z,48.80
2023-04-30T06:22:31.467Z,48.60
2023-04-30T06:24:33.049Z,50.00
2023-04-30T06:26:34.608Z,50.40
2023-04-30T06:28:36.211Z,50.60
2023-04-30T06:30:37.933Z,50.20
2023-04-30T06:32:39.569Z,50.70
2023-04-30T06:34:41.182Z,50.50
2023-04-30T06:36:42.743Z,50.80
2023-04-30T06:38:44.268Z,50.90
2023-04-30T06:40:45.833Z,50.80
2023-04-30T06:42:47.842Z,50.80
2023-04-30T06:44:49.503Z,50.70
2023-04-30T06:46:51.020Z,50.80
2023-04-30T06:48:52.595Z,50.70
2023-04-30T06:50:54.181Z,50.80
2023-04-30T06:52:55.745Z,51.00
2023-04-30T06:54:57.375Z,50.70
2023-04-30T06:56:58.917Z,50.90
2023-04-30T06:59:00.480Z,51.10
2023-04-30T07:01:02.140Z,50.90
2023-04-30T07:03:04.630Z,51.00
2023-04-30T07:05:06.705Z,50.80
2023-04-30T07:07:08.266Z,50.90
2023-04-30T07:09:10.274Z,50.80
2023-04-30T07:11:12.493Z,50.90
2023-04-30T07:13:14.082Z,50.80
2023-04-30T07:15:15.895Z,50.00
2023-04-30T07:17:17.609Z,50.80
2023-04-30T07:19:19.556Z,51.10
2023-04-30T07:21:21.826Z,51.20
2023-04-30T07:23:23.474Z,51.30
2023-04-30T07:25:24.992Z,51.40
2023-04-30T07:27:26.849Z,51.30
2023-04-30T07:29:29.292Z,51.40
2023-04-30T07:31:30.850Z,51.60
2023-04-30T07:33:32.452Z,51.60
2023-04-30T07:35:34.388Z,51.40
2023-04-30T07:37:36.308Z,51.50
2023-04-30T07:39:38.064Z,51.30
2023-04-30T07:41:39.623Z,50.40
2023-04-30T07:43:41.193Z,48.40
2023-04-30T07:45:42.962Z,47.90
2023-04-30T07:47:44.671Z,46.70
2023-04-30T07:49:47.100Z,46.60
2023-04-30T07:51:48.647Z,46.30
2023-04-30T07:53:50.326Z,46.70
2023-04-30T07:55:51.940Z,46.90
2023-04-30T07:57:53.653Z,46.60
2023-04-30T07:59:55.851Z,47.30
2023-04-30T08:01:57.857Z,46.90
2023-04-30T08:03:59.541Z,47.20
2023-04-30T08:06:01.467Z,47.30
2023-04-30T08:08:04.045Z,47.30
2023-04-30T08:10:06.086Z,47.00
2023-04-30T08:12:08.952Z,47.60
2023-04-30T08:14:10.524Z,47.40
2023-04-30T08:16:12.171Z,46.40
2023-04-30T08:18:13.771Z,46.80
2023-04-30T08:20:15.656Z,46.10
2023-04-30T08:22:17.183Z,46.10
2023-04-30T08:24:18.815Z,46.70
2023-04-30T08:26:21.102Z,47.00
2023-04-30T08:28:22.834Z,47.70
2023-04-30T08:30:24.925Z,48.30
2023-04-30T08:32:27.414Z,48.50
2023-04-30T08:34:29.042Z,48.00
2023-04-30T08:36:30.598Z,48.20
2023-04-30T08:38:32.158Z,48.40
2023-04-30T08:40:50.332Z,48.50
2023-04-30T08:43:20.362Z,48.50
2023-04-30T08:45:22.151Z,48.50
2023-04-30T08:47:24.097Z,48.60
2023-04-30T08:49:25.776Z,48.50
2023-04-30T08:51:27.607Z,48.60
2023-04-30T08:53:30.530Z,48.80
2023-04-30T08:55:33.791Z,48.80
2023-04-30T08:57:35.957Z,48.80
2023-04-30T08:59:37.533Z,48.80
2023-04-30T09:01:39.233Z,48.80
2023-04-30T09:03:41.092Z,48.80
2023-04-30T09:05:42.890Z,48.80
2023-04-30T09:08:01.228Z,48.70
2023-04-30T09:10:05.251Z,48.70
2023-04-30T09:12:19.824Z,48.80
2023-04-30T09:14:25.636Z,48.80
2023-04-30T09:16:33.005Z,48.70
2023-04-30T09:18:38.834Z,48.80
2023-04-30T09:21:03.668Z,48.70
2023-04-30T09:23:09.791Z,48.70
2023-04-30T09:25:11.635Z,48.80
2023-04-30T09:27:19.875Z,48.80
2023-04-30T09:29:21.534Z,48.80
2023-04-30T09:31:24.729Z,48.80
2023-04-30T09:33:26.396Z,48.80
2023-04-30T09:35:38.973Z,48.70
2023-04-30T09:37:41.081Z,48.70
2023-04-30T09:39:49.624Z,48.70
2023-04-30T09:41:54.184Z,48.70
2023-04-30T09:43:56.497Z,48.60
2023-04-30T09:45:58.953Z,48.70
2023-04-30T09:48:12.792Z,48.70
2023-04-30T09:50:18.450Z,48.70
2023-04-30T09:52:20.826Z,48.80
2023-04-30T09:54:25.747Z,48.90
2023-04-30T09:56:27.309Z,48.80
2023-04-30T09:58:29.336Z,48.90
2023-04-30T10:00:32.860Z,48.80
2023-04-30T10:02:34.909Z,48.80
2023-04-30T10:04:37.354Z,48.90
2023-04-30T10:06:39.469Z,48.80
2023-04-30T10:08:42.528Z,48.80
2023-04-30T10:10:46.813Z,48.80
2023-04-30T10:12:50.733Z,48.70
2023-04-30T10:14:53.230Z,48.80
2023-04-30T10:16:58.403Z,48.80
2023-04-30T10:19:03.758Z,48.80
2023-04-30T10:21:10.343Z,48.80
2023-04-30T10:23:12.594Z,48.80
2023-04-30T10:25:14.604Z,48.80
2023-04-30T10:27:16.579Z,48.80
2023-04-30T10:29:18.551Z,48.70
2023-04-30T10:31:21.046Z,48.70
2023-04-30T10:33:25.665Z,48.70
2023-04-30T10:35:30.452Z,48.60
2023-04-30T10:37:37.930Z,48.60
2023-04-30T10:39:39.602Z,48.60
2023-04-30T10:41:44.428Z,48.60
2023-04-30T10:43:47.035Z,48.60
2023-04-30T10:45:48.746Z,48.60
2023-04-30T10:47:50.459Z,48.50
2023-04-30T10:49:53.400Z,48.50
2023-04-30T10:51:56.853Z,48.50
2023-04-30T10:53:58.576Z,48.50
2023-04-30T10:56:06.347Z,48.50
2023-04-30T10:58:23.206Z,48.50
2023-04-30T11:00:25.892Z,48.50
2023-04-30T11:02:38.467Z,48.50
2023-04-30T11:04:58.591Z,48.50
2023-04-30T11:07:08.069Z,48.50
2023-04-30T11:09:09.654Z,48.50
2023-04-30T11:11:11.391Z,48.40
2023-04-30T11:13:13.925Z,48.40
2023-04-30T11:15:18.279Z,48.40
2023-04-30T11:17:23.540Z,48.40
2023-04-30T11:19:25.477Z,48.30
2023-04-30T11:21:27.608Z,48.40
2023-04-30T11:23:40.033Z,48.40
2023-04-30T11:25:47.383Z,48.40
2023-04-30T11:27:49.334Z,48.40
2023-04-30T11:29:54.426Z,48.40
2023-04-30T11:31:56.409Z,48.30
2023-04-30T11:33:58.165Z,48.40
2023-04-30T11:36:00.635Z,48.40
2023-04-30T11:38:04.078Z,48.30
2023-04-30T11:40:10.962Z,48.30
2023-04-30T11:42:16.546Z,48.30
2023-04-30T11:44:27.059Z,48.20
2023-04-30T11:46:29.410Z,48.30
2023-04-30T11:48:34.507Z,48.30
2023-04-30T11:50:42.589Z,48.20
2023-04-30T11:52:49.022Z,48.30
2023-04-30T11:54:50.595Z,48.20
2023-04-30T11:56:52.124Z,48.20
2023-04-30T11:58:55.773Z,48.20
2023-04-30T12:00:59.656Z,48.10
2023-04-30T12:03:03.680Z,48.20
2023-04-30T12:05:12.444Z,48.20
2023-04-30T12:07:14.043Z,48.10
2023-04-30T12:09:15.691Z,48.10
2023-04-30T12:11:25.766Z,48.10
2023-04-30T12:13:27.716Z,48.10
2023-04-30T12:15:29.362Z,48.10
2023-04-30T12:17:32.263Z,48.10
2023-04-30T12:19:34.434Z,48.00
2023-04-30T12:21:36.530Z,48.00
2023-04-30T12:23:38.303Z,48.00
2023-04-30T12:25:40.848Z,48.00
2023-04-30T12:27:45.153Z,48.00
2023-04-30T12:29:48.574Z,48.10
2023-04-30T12:31:51.908Z,48.10
2023-04-30T12:33:53.925Z,48.10
2023-04-30T12:35:56.673Z,48.00
2023-04-30T12:38:02.177Z,48.00
2023-04-30T12:40:03.973Z,48.00
2023-04-30T12:42:05.573Z,48.00
2023-04-30T12:44:13.762Z,48.00
2023-04-30T12:46:25.643Z,47.90
2023-04-30T12:48:27.886Z,48.00
2023-04-30T12:50:29.427Z,48.00
2023-04-30T12:52:32.518Z,48.00
2023-04-30T12:54:34.618Z,48.10
2023-04-30T12:56:36.265Z,48.00
2023-04-30T12:58:39.006Z,48.00
2023-04-30T13:00:44.434Z,48.10
2023-04-30T13:02:46.157Z,48.30
2023-04-30T13:04:49.197Z,48.20
2023-04-30T13:06:50.767Z,48.10
2023-04-30T13:08:58.585Z,48.20
2023-04-30T13:11:00.577Z,48.20
2023-04-30T13:13:02.256Z,48.90
2023-04-30T13:15:03.999Z,48.20
2023-04-30T13:17:07.295Z,48.30
2023-04-30T13:19:08.912Z,47.90
2023-04-30T13:21:10.668Z,46.90
2023-04-30T13:23:12.272Z,47.20
2023-04-30T13:25:13.874Z,47.50
2023-04-30T13:27:15.449Z,47.50
2023-04-30T13:29:17.020Z,47.70
2023-04-30T13:31:18.666Z,47.70
2023-04-30T13:33:20.814Z,47.70
2023-04-30T13:35:22.749Z,47.90
2023-04-30T13:37:24.413Z,47.80
2023-04-30T13:39:26.167Z,47.80
2023-04-30T13:41:28.072Z,47.70
2023-04-30T13:43:29.648Z,47.90
2023-04-30T13:45:31.201Z,47.80
2023-04-30T13:47:32.900Z,47.70
2023-04-30T13:49:37.288Z,47.80
2023-04-30T13:51:38.941Z,47.90
2023-04-30T13:53:40.487Z,47.90
2023-04-30T13:55:42.064Z,47.90
2023-04-30T13:57:43.723Z,47.80
2023-04-30T13:59:45.356Z,47.70
2023-04-30T14:01:47.038Z,47.80
2023-04-30T14:03:48.770Z,47.70
2023-04-30T14:05:50.794Z,47.60
2023-04-30T14:07:52.380Z,47.70
2023-04-30T14:09:53.995Z,47.60
2023-04-30T14:11:58.890Z,47.70
2023-04-30T14:14:00.464Z,47.70
2023-04-30T14:16:02.292Z,47.70
2023-04-30T14:18:03.915Z,47.60
2023-04-30T14:20:05.840Z,47.70
2023-04-30T14:22:07.418Z,47.50
2023-04-30T14:24:09.817Z,47.50
2023-04-30T14:26:11.393Z,48.10
2023-04-30T14:28:13.078Z,47.80
2023-04-30T14:30:14.800Z,48.10
2023-04-30T14:32:16.363Z,48.00
2023-04-30T14:34:18.133Z,48.00
2023-04-30T14:36:19.687Z,48.10
2023-04-30T14:38:21.266Z,45.90
2023-04-30T14:40:23.100Z,45.80
2023-04-30T14:42:24.633Z,47.10
2023-04-30T14:44:26.480Z,47.50
2023-04-30T14:46:28.277Z,47.60
2023-04-30T14:48:29.899Z,47.60
2023-04-30T14:50:31.626Z,47.70
2023-04-30T14:52:33.212Z,47.70
2023-04-30T14:54:34.822Z,47.80
2023-04-30T14:56:36.380Z,48.00
2023-04-30T14:58:38.034Z,48.10
2023-04-30T15:00:39.642Z,48.20
2023-04-30T15:02:41.320Z,48.20
2023-04-30T15:04:45.970Z,48.20
2023-04-30T15:06:47.796Z,48.20
2023-04-30T15:08:49.944Z,48.20
2023-04-30T15:10:51.521Z,48.30
2023-04-30T15:12:53.814Z,49.00
2023-04-30T15:14:55.421Z,48.30
2023-04-30T15:16:56.995Z,48.30
2023-04-30T15:18:59.220Z,48.30
2023-04-30T15:21:02.060Z,48.40
2023-04-30T15:23:03.705Z,48.40
2023-04-30T15:25:06.748Z,48.40
2023-04-30T15:27:08.328Z,48.30
2023-04-30T15:29:10.462Z,48.40
2023-04-30T15:31:12.086Z,48.40
2023-04-30T15:33:13.674Z,48.40
2023-04-30T15:35:15.414Z,48.50
2023-04-30T15:37:16.921Z,48.40
2023-04-30T15:39:19.023Z,48.40
2023-04-30T15:41:21.635Z,48.30
2023-04-30T15:43:23.276Z,48.50
2023-04-30T15:45:25.331Z,48.50
2023-04-30T15:47:26.977Z,48.60
2023-04-30T15:49:28.683Z,48.60
2023-04-30T15:51:30.848Z,48.70
2023-04-30T15:53:32.471Z,48.50
2023-04-30T15:55:34.043Z,48.60
2023-04-30T15:57:35.582Z,48.60
2023-04-30T15:59:37.109Z,48.60
2023-04-30T16:01:38.697Z,48.50
2023-04-30T16:03:40.606Z,48.60
2023-04-30T16:05:42.610Z,45.60
2023-04-30T16:07:45.537Z,40.60
2023-04-30T16:09:49.072Z,42.30
2023-04-30T16:11:50.802Z,42.70
2023-04-30T16:13:52.876Z,43.70
2023-04-30T16:15:54.552Z,44.70
2023-04-30T16:17:56.693Z,42.70
2023-04-30T16:19:58.974Z,42.30
2023-04-30T16:22:00.694Z,40.10
2023-04-30T16:24:02.297Z,39.20
2023-04-30T16:26:03.885Z,39.60
2023-04-30T16:28:05.520Z,39.20
2023-04-30T16:30:07.481Z,40.40
2023-04-30T16:32:09.417Z,42.00
2023-04-30T16:34:12.135Z,39.10
2023-04-30T16:36:13.737Z,38.10
2023-04-30T16:38:15.325Z,38.60
2023-04-30T16:40:17.288Z,41.60
2023-04-30T16:42:18.854Z,40.70
2023-04-30T16:44:21.769Z,42.90
2023-04-30T16:46:23.439Z,42.60
2023-04-30T16:48:25.085Z,44.70
2023-04-30T16:50:26.952Z,44.40
2023-04-30T16:52:29.569Z,44.50
2023-04-30T16:54:31.164Z,45.10
2023-04-30T16:56:32.719Z,45.60
2023-04-30T16:58:34.693Z,45.90
2023-04-30T17:00:36.631Z,46.30
2023-04-30T17:02:40.246Z,46.90
2023-04-30T17:04:42.099Z,46.90
2023-04-30T17:06:43.850Z,47.00
2023-04-30T17:08:45.447Z,47.30
2023-04-30T17:10:47.656Z,47.30
2023-04-30T17:12:49.322Z,47.70
2023-04-30T17:14:52.186Z,48.30
2023-04-30T17:16:53.917Z,48.70
2023-04-30T17:18:55.592Z,48.20
2023-04-30T17:20:57.350Z,47.30
2023-04-30T17:22:59.124Z,47.60
2023-04-30T17:25:02.112Z,48.00
2023-04-30T17:27:05.491Z,48.30
2023-04-30T17:29:07.286Z,48.60
2023-04-30T17:31:09.276Z,48.60
2023-04-30T17:33:10.920Z,49.00
2023-04-30T17:35:12.549Z,49.20
2023-04-30T17:37:14.126Z,48.80
2023-04-30T17:39:16.260Z,49.00
2023-04-30T17:41:18.411Z,49.10
2023-04-30T17:43:19.965Z,49.20
2023-04-30T17:45:21.769Z,49.50
2023-04-30T17:47:23.511Z,49.20
2023-04-30T17:49:25.741Z,49.40
2023-04-30T17:51:29.108Z,49.60
2023-04-30T17:53:30.671Z,49.50
2023-04-30T17:55:32.733Z,49.60
2023-04-30T17:57:34.638Z,49.50
2023-04-30T17:59:38.459Z,49.50
2023-04-30T18:01:40.367Z,49.50
2023-04-30T18:03:42.730Z,49.70
2023-04-30T18:05:45.120Z,49.90
2023-04-30T18:07:47.562Z,50.90
2023-04-30T18:09:49.171Z,50.70
2023-04-30T18:11:51.511Z,51.10
2023-04-30T18:13:53.098Z,51.20
2023-04-30T18:15:54.768Z,51.20
2023-04-30T18:17:56.742Z,51.40
2023-04-30T18:19:58.631Z,51.20
2023-04-30T18:22:00.448Z,51.00
2023-04-30T18:24:02.687Z,51.10
2023-04-30T18:26:04.753Z,51.10
2023-04-30T18:28:07.945Z,50.90
2023-04-30T18:30:11.452Z,51.40
2023-04-30T18:32:13.343Z,51.30
2023-04-30T18:34:15.606Z,50.00
2023-04-30T18:36:17.290Z,48.40
2023-04-30T18:38:18.996Z,48.90
2023-04-30T18:40:20.792Z,48.10
2023-04-30T18:42:24.586Z,47.50
2023-04-30T18:44:34.289Z,48.10
2023-04-30T18:46:36.123Z,48.20
2023-04-30T18:48:38.210Z,48.20
2023-04-30T18:50:41.761Z,46.60
2023-04-30T18:52:45.105Z,46.20
2023-04-30T18:54:46.786Z,46.60
2023-04-30T18:56:48.736Z,47.20
2023-04-30T18:58:50.444Z,47.50
2023-04-30T19:00:52.375Z,47.70
2023-04-30T19:02:54.189Z,47.70
2023-04-30T19:04:55.883Z,47.80
2023-04-30T19:06:57.610Z,48.00
2023-04-30T19:09:00.004Z,47.90
2023-04-30T19:11:01.651Z,47.80
2023-04-30T19:13:03.951Z,47.90
2023-04-30T19:15:07.919Z,48.00
2023-04-30T19:17:09.714Z,48.10
2023-04-30T19:19:11.435Z,48.00
2023-04-30T19:21:14.814Z,48.00
2023-04-30T19:23:16.525Z,48.30
2023-04-30T19:25:18.273Z,47.90
2023-04-30T19:27:20.149Z,47.50
2023-04-30T19:29:21.987Z,45.80
2023-04-30T19:31:23.784Z,45.00
2023-04-30T19:33:25.701Z,44.20
2023-04-30T19:35:27.502Z,44.80
2023-04-30T19:37:29.142Z,45.00
2023-04-30T19:39:31.750Z,45.40
2023-04-30T19:41:33.385Z,45.30
2023-04-30T19:43:35.050Z,45.10
2023-04-30T19:45:36.884Z,45.30
2023-04-30T19:47:38.650Z,45.20
2023-04-30T19:49:40.330Z,45.60
2023-04-30T19:51:42.011Z,45.60
2023-04-30T19:53:43.687Z,45.70
2023-04-30T19:55:46.001Z,45.80
2023-04-30T19:57:47.728Z,46.10
2023-04-30T19:59:49.348Z,46.30
2023-04-30T20:01:52.418Z,46.30
2023-04-30T20:03:54.245Z,46.50
2023-04-30T20:05:56.197Z,46.60
2023-04-30T20:07:58.689Z,46.80
2023-04-30T20:10:00.297Z,46.80
2023-04-30T20:12:03.572Z,46.90
2023-04-30T20:14:05.344Z,47.10
2023-04-30T20:16:09.771Z,47.20
2023-04-30T20:18:12.431Z,47.20
2023-04-30T20:20:14.386Z,47.20
2023-04-30T20:22:16.044Z,47.20
2023-04-30T20:24:18.068Z,47.40
2023-04-30T20:26:21.473Z,47.30
2023-04-30T20:28:23.165Z,47.30
2023-04-30T20:30:24.773Z,47.50
2023-04-30T20:32:26.483Z,47.50
2023-04-30T20:34:28.270Z,47.50
2023-04-30T20:36:32.229Z,47.50
2023-04-30T20:38:33.905Z,47.40
2023-04-30T20:40:35.608Z,47.80
2023-04-30T20:42:38.703Z,47.70
2023-04-30T20:44:40.592Z,47.70
2023-04-30T20:46:43.092Z,47.80
2023-04-30T20:48:44.715Z,47.80
2023-04-30T20:50:46.889Z,47.90
2023-04-30T20:52:48.657Z,47.80
2023-04-30T20:54:50.666Z,47.90
2023-04-30T20:56:52.360Z,47.90
2023-04-30T20:58:54.537Z,48.00
2023-04-30T21:00:56.676Z,48.20
2023-04-30T21:02:58.614Z,48.00
2023-04-30T21:05:04.312Z,48.30
2023-04-30T21:07:06.028Z,48.30
2023-04-30T21:09:07.711Z,48.40
2023-04-30T21:11:09.491Z,48.40
2023-04-30T21:13:12.767Z,48.50
2023-04-30T21:15:14.526Z,48.50
2023-04-30T21:17:16.188Z,48.70
2023-04-30T21:19:17.874Z,48.60
2023-04-30T21:21:19.790Z,48.70
2023-04-30T21:23:21.442Z,48.80
2023-04-30T21:25:23.146Z,48.90
2023-04-30T21:27:24.744Z,49.10
2023-04-30T21:29:26.443Z,49.00
2023-04-30T21:31:28.323Z,49.20
2023-04-30T21:33:31.064Z,49.20
2023-04-30T21:35:33.028Z,49.00
2023-04-30T21:37:34.938Z,49.00
2023-04-30T21:39:36.556Z,49.00
2023-04-30T21:41:38.243Z,49.10
2023-04-30T21:43:41.398Z,49.00
2023-04-30T21:45:43.621Z,49.60
2023-04-30T21:47:47.514Z,49.20
2023-04-30T21:49:49.225Z,49.20
2023-04-30T21:51:50.882Z,49.10
2023-04-30T21:53:52.564Z,49.10
2023-04-30T21:55:54.247Z,49.20
2023-04-30T21:57:55.931Z,49.20
2023-04-30T21:59:59.857Z,49.20
2023-04-30T22:02:07.331Z,49.20
2023-04-30T22:04:16.138Z,49.20
2023-04-30T22:06:17.820Z,49.20
2023-04-30T22:08:19.453Z,49.50
2023-04-30T22:10:21.043Z,49.50
2023-04-30T22:12:24.952Z,49.20
2023-04-30T22:14:26.859Z,49.20
2023-04-30T22:16:29.172Z,49.20
2023-04-30T22:18:31.063Z,49.20
2023-04-30T22:20:33.009Z,49.20
2023-04-30T22:22:34.690Z,49.30
2023-04-30T22:24:36.354Z,49.20
2023-04-30T22:26:38.007Z,49.30
2023-04-30T22:28:39.750Z,49.40
2023-04-30T22:30:41.431Z,49.30
2023-04-30T22:32:43.130Z,49.50
2023-04-30T22:34:45.097Z,49.50
2023-04-30T22:36:46.702Z,49.50
2023-04-30T22:38:48.279Z,49.30
2023-04-30T22:40:49.889Z,49.30
2023-04-30T22:42:51.974Z,49.20
2023-04-30T22:44:54.230Z,49.30
2023-04-30T22:46:57.953Z,49.20
2023-04-30T22:49:00.255Z,49.20
2023-04-30T22:51:01.856Z,49.20
2023-04-30T22:53:03.601Z,49.20
2023-04-30T22:55:05.486Z,49.30
2023-04-30T22:57:07.033Z,49.50
2023-04-30T22:59:08.954Z,49.50
2023-04-30T23:01:10.613Z,49.40
2023-04-30T23:03:12.240Z,49.40
2023-04-30T23:05:13.810Z,49.50
2023-04-30T23:07:16.083Z,49.50
2023-04-30T23:09:17.670Z,49.40
2023-04-30T23:11:20.546Z,49.40
2023-04-30T23:13:22.817Z,49.40
2023-04-30T23:15:24.934Z,49.40
2023-04-30T23:17:26.927Z,49.30
2023-04-30T23:19:28.652Z,49.40
2023-04-30T23:21:31.117Z,49.40
2023-04-30T23:23:33.367Z,49.30
2023-04-30T23:25:34.905Z,49.30
2023-04-30T23:27:36.466Z,49.30
2023-04-30T23:29:38.108Z,49.30
2023-04-30T23:31:39.983Z,49.30
2023-04-30T23:33:41.514Z,49.30
2023-04-30T23:35:43.715Z,49.30
2023-04-30T23:37:45.639Z,49.40
2023-04-30T23:39:47.200Z,49.30
2023-04-30T23:41:48.770Z,49.40
2023-04-30T23:43:51.011Z,49.50
2023-04-30T23:45:52.668Z,49.50
2023-04-30T23:47:54.231Z,49.50
2023-04-30T23:49:56.502Z,49.50
2023-04-30T23:51:58.250Z,49.50
2023-04-30T23:53:59.829Z,49.50
2023-04-30T23:56:01.717Z,49.50
2023-04-30T23:58:03.828Z,49.50
